createdAt,value
2023-03-07T00:01:43.078Z,31.98
2023-03-07T00:04:11.127Z,33.17
2023-03-07T00:06:37.948Z,33.83
2023-03-07T00:09:11.899Z,38.92
2023-03-07T00:11:39.960Z,41.33
2023-03-07T00:14:11.656Z,32.60
2023-03-07T00:16:41.702Z,31.33
2023-03-07T00:19:14.809Z,29.65
2023-03-07T00:21:43.129Z,30.08
2023-03-07T00:24:11.765Z,33.58
2023-03-07T00:26:40.429Z,30.92
2023-03-07T00:29:11.912Z,31.13
2023-03-07T00:31:41.807Z,31.23
2023-03-07T00:34:08.978Z,30.20
2023-03-07T00:36:35.712Z,32.90
2023-03-07T00:39:05.626Z,31.15
2023-03-07T00:41:35.659Z,30.33
2023-03-07T00:44:02.741Z,29.00
2023-03-07T00:46:33.775Z,30.40
2023-03-07T00:49:03.573Z,32.42
2023-03-07T00:51:37.961Z,31.77
2023-03-07T00:56:35.194Z,29.48
2023-03-07T00:59:04.180Z,30.17
2023-03-07T01:01:30.789Z,32.67
2023-03-07T01:03:58.990Z,37.72
2023-03-07T01:06:41.833Z,31.42
2023-03-07T01:09:08.851Z,32.88
2023-03-07T01:11:42.773Z,31.10
2023-03-07T01:14:15.606Z,30.45
2023-03-07T01:16:45.637Z,32.55
2023-03-07T01:19:27.569Z,34.53
2023-03-07T01:21:54.517Z,32.20
2023-03-07T01:24:21.784Z,31.42
2023-03-07T01:26:52.871Z,32.97
2023-03-07T01:29:19.575Z,32.45
2023-03-07T01:31:46.250Z,34.10
2023-03-07T01:34:25.771Z,36.63
2023-03-07T01:36:58.883Z,33.80
2023-03-07T01:39:31.849Z,33.72
2023-03-07T01:42:09.019Z,41.65
2023-03-07T01:45:00.397Z,32.72
2023-03-07T01:47:31.115Z,34.85
2023-03-07T01:50:12.256Z,33.78
2023-03-07T01:52:45.070Z,33.92
2023-03-07T01:55:46.375Z,39.67
2023-03-07T01:58:16.987Z,36.03
2023-03-07T02:00:48.043Z,42.97
2023-03-07T02:03:31.212Z,36.40
2023-03-07T02:06:02.015Z,36.45
2023-03-07T02:08:37.321Z,39.10
2023-03-07T02:11:15.547Z,38.63
2023-03-07T02:13:44.292Z,37.13
2023-03-07T02:16:11.025Z,42.58
2023-03-07T02:18:52.809Z,43.97
2023-03-07T02:21:35.071Z,35.95
2023-03-07T02:24:23.285Z,35.08
2023-03-07T02:26:53.308Z,44.67
2023-03-07T02:29:26.987Z,38.60
2023-03-07T02:31:53.669Z,44.47
2023-03-07T02:34:32.387Z,34.60
2023-03-07T02:37:17.200Z,39.25
2023-03-07T02:39:51.903Z,34.88
2023-03-07T02:42:30.767Z,34.63
2023-03-07T02:44:59.748Z,35.88
2023-03-07T02:47:35.899Z,36.72
2023-03-07T02:50:06.803Z,35.10
2023-03-07T02:52:39.302Z,36.80
2023-03-07T02:55:11.129Z,37.70
2023-03-07T02:57:47.767Z,39.05
2023-03-07T03:00:14.896Z,37.03
2023-03-07T03:02:41.618Z,36.58
2023-03-07T03:05:12.822Z,39.75
2023-03-07T03:07:39.541Z,39.60
2023-03-07T03:10:13.059Z,41.35
2023-03-07T03:12:52.215Z,40.45
2023-03-07T03:15:22.140Z,43.30
2023-03-07T03:17:49.213Z,45.85
2023-03-07T03:20:17.113Z,39.90
2023-03-07T03:25:25.548Z,36.83
2023-03-07T03:27:55.387Z,40.17
2023-03-07T03:30:24.231Z,44.95
2023-03-07T03:32:53.642Z,38.55
2023-03-07T03:35:20.337Z,37.42
2023-03-07T03:37:47.108Z,47.58
2023-03-07T03:40:17.682Z,39.83
2023-03-07T03:42:45.101Z,39.45
2023-03-07T03:45:17.578Z,42.70
2023-03-07T03:47:49.096Z,42.97
2023-03-07T03:50:15.850Z,40.60
2023-03-07T03:52:45.355Z,39.50
2023-03-07T03:55:18.304Z,41.08
2023-03-07T03:57:45.073Z,38.45
2023-03-07T04:00:15.158Z,41.00
2023-03-07T04:02:41.876Z,39.88
2023-03-07T04:05:16.611Z,39.55
2023-03-07T04:07:43.454Z,40.92
2023-03-07T04:10:10.819Z,39.88
2023-03-07T04:12:37.468Z,37.15
2023-03-07T04:15:05.800Z,39.63
2023-03-07T04:17:33.035Z,37.67
2023-03-07T04:20:00.723Z,36.88
2023-03-07T04:22:27.352Z,40.03
2023-03-07T04:24:54.074Z,40.13
2023-03-07T04:27:23.353Z,35.15
2023-03-07T04:29:50.142Z,40.47
2023-03-07T04:32:16.781Z,38.80
2023-03-07T04:34:43.565Z,36.97
2023-03-07T04:37:10.224Z,35.53
2023-03-07T04:39:38.793Z,35.42
2023-03-07T04:42:05.667Z,35.33
2023-03-07T04:44:32.275Z,39.05
2023-03-07T04:46:59.043Z,37.78
2023-03-07T04:49:27.030Z,36.03
2023-03-07T04:51:53.879Z,35.95
2023-03-07T04:54:20.548Z,34.63
2023-03-07T04:56:49.815Z,34.80
2023-03-07T04:59:16.965Z,33.33
2023-03-07T05:01:43.660Z,35.10
2023-03-07T05:04:12.933Z,38.92
2023-03-07T05:06:39.599Z,34.92
2023-03-07T05:09:06.306Z,34.00
2023-03-07T05:11:33.737Z,37.30
2023-03-07T05:14:00.409Z,33.70
2023-03-07T05:16:27.093Z,33.92
2023-03-07T05:18:53.871Z,34.47
2023-03-07T05:21:20.556Z,36.45
2023-03-07T05:23:47.640Z,34.85
2023-03-07T05:26:17.438Z,35.08
2023-03-07T05:28:52.789Z,37.55
2023-03-07T05:31:22.611Z,36.28
2023-03-07T05:33:49.901Z,38.90
2023-03-07T05:36:18.118Z,41.10
2023-03-07T05:38:49.932Z,37.53
2023-03-07T05:41:26.636Z,36.67
2023-03-07T05:44:05.196Z,36.28
2023-03-07T05:46:38.602Z,41.13
2023-03-07T05:55:13.457Z,42.75
2023-03-07T05:57:56.645Z,36.03
2023-03-07T06:00:34.770Z,39.80
2023-03-07T06:03:07.246Z,44.03
2023-03-07T06:05:37.771Z,43.45
2023-03-07T06:08:20.578Z,38.60
2023-03-07T06:17:17.420Z,41.05
2023-03-07T06:19:55.033Z,36.95
2023-03-07T06:22:26.388Z,46.55
2023-03-07T06:25:16.070Z,42.85
2023-03-07T06:27:52.630Z,40.13
2023-03-07T06:33:21.452Z,36.88
2023-03-07T06:35:48.426Z,38.72
2023-03-07T06:38:20.219Z,50.30
2023-03-07T06:40:57.053Z,44.95
2023-03-07T06:43:28.618Z,38.13
2023-03-07T06:46:02.868Z,42.15
2023-03-07T06:48:35.260Z,38.28
2023-03-07T06:51:13.852Z,36.83
2023-03-07T06:53:41.468Z,37.40
2023-03-07T06:56:15.992Z,38.67
2023-03-07T06:58:52.452Z,40.28
2023-03-07T07:01:23.412Z,37.95
2023-03-07T07:03:53.368Z,39.13
2023-03-07T07:06:20.298Z,40.15
2023-03-07T07:08:53.420Z,44.65
2023-03-07T07:11:20.517Z,40.92
2023-03-07T07:13:50.339Z,40.97
2023-03-07T07:16:23.795Z,40.35
2023-03-07T07:18:54.619Z,38.47
2023-03-07T07:21:27.288Z,40.00
2023-03-07T07:23:57.888Z,35.70
2023-03-07T07:26:37.276Z,44.50
2023-03-07T07:29:06.877Z,41.45
2023-03-07T07:31:33.722Z,38.55
2023-03-07T07:34:02.724Z,39.15
2023-03-07T07:36:37.310Z,40.20
2023-03-07T07:39:05.633Z,38.15
2023-03-07T07:41:35.089Z,38.83
2023-03-07T07:44:14.171Z,37.47
2023-03-07T07:46:43.981Z,38.45
2023-03-07T07:49:18.920Z,39.03
2023-03-07T07:51:45.741Z,38.10
2023-03-07T07:54:28.733Z,39.83
2023-03-07T07:56:57.641Z,37.58
2023-03-07T07:59:42.846Z,49.42
2023-03-07T08:02:16.801Z,37.20
2023-03-07T08:04:44.887Z,40.35
2023-03-07T08:07:22.627Z,35.95
2023-03-07T08:10:09.834Z,37.63
2023-03-07T08:12:47.658Z,33.70
2023-03-07T08:15:20.894Z,35.40
2023-03-07T08:18:00.232Z,34.95
2023-03-07T08:20:56.496Z,38.80
2023-03-07T08:23:26.430Z,35.35
2023-03-07T08:25:53.312Z,36.13
2023-03-07T08:28:36.970Z,35.47
2023-03-07T08:31:28.345Z,35.47
2023-03-07T08:33:55.246Z,35.53
2023-03-07T08:36:24.425Z,36.17
2023-03-07T08:38:55.605Z,36.33
2023-03-07T08:41:23.100Z,34.40
2023-03-07T08:43:58.382Z,36.08
2023-03-07T08:46:30.717Z,42.90
2023-03-07T08:49:03.016Z,35.70
2023-03-07T08:51:29.930Z,35.33
2023-03-07T08:54:04.468Z,36.35
2023-03-07T08:56:33.902Z,33.97
2023-03-07T08:59:06.283Z,34.33
2023-03-07T09:01:41.386Z,34.03
2023-03-07T09:04:11.472Z,36.33
2023-03-07T09:06:45.170Z,33.17
2023-03-07T09:09:12.591Z,32.63
2023-03-07T09:11:41.874Z,34.53
2023-03-07T09:14:11.681Z,34.63
2023-03-07T09:16:43.388Z,41.28
2023-03-07T09:19:18.380Z,33.47
2023-03-07T09:21:48.648Z,33.30
2023-03-07T09:24:23.910Z,33.65
2023-03-07T09:26:50.726Z,34.47
2023-03-07T09:29:20.594Z,33.83
2023-03-07T09:31:50.096Z,32.00
2023-03-07T09:34:23.582Z,35.88
2023-03-07T09:36:54.548Z,34.47
2023-03-07T09:39:21.362Z,32.50
2023-03-07T09:42:29.102Z,34.97
2023-03-07T09:45:15.285Z,34.63
2023-03-07T09:48:01.616Z,32.40
2023-03-07T09:50:55.485Z,31.17
2023-03-07T09:53:33.859Z,34.78
2023-03-07T09:56:05.687Z,31.52
2023-03-07T09:58:38.984Z,33.30
2023-03-07T10:01:11.343Z,32.13
2023-03-07T10:03:47.765Z,34.22
2023-03-07T10:06:23.559Z,32.90
2023-03-07T10:08:54.449Z,32.08
2023-03-07T10:11:48.921Z,30.25
2023-03-07T10:14:26.374Z,31.02
2023-03-07T10:17:04.953Z,30.58
2023-03-07T10:19:47.020Z,32.67
2023-03-07T10:22:24.779Z,32.75
2023-03-07T10:25:10.136Z,37.03
2023-03-07T10:27:38.278Z,29.23
2023-03-07T10:30:20.985Z,33.63
2023-03-07T10:32:58.716Z,30.98
2023-03-07T10:35:51.764Z,30.85
2023-03-07T10:38:30.543Z,30.50
2023-03-07T10:41:07.131Z,32.85
2023-03-07T10:43:35.118Z,33.58
2023-03-07T10:46:24.689Z,32.58
2023-03-07T10:49:12.469Z,33.63
2023-03-07T10:51:51.433Z,30.83
2023-03-07T10:54:30.013Z,30.63
2023-03-07T10:57:18.969Z,34.92
2023-03-07T10:59:50.547Z,33.88
2023-03-07T11:02:23.929Z,33.30
2023-03-07T11:04:52.415Z,33.25
2023-03-07T11:07:48.224Z,35.92
2023-03-07T11:10:27.640Z,33.78
2023-03-07T11:12:56.403Z,30.88
2023-03-07T11:15:26.443Z,35.90
2023-03-07T11:17:53.708Z,31.25
2023-03-07T11:20:30.926Z,33.03
2023-03-07T11:23:18.990Z,28.73
2023-03-07T11:25:52.536Z,27.42
2023-03-07T11:28:40.938Z,29.45
2023-03-07T11:31:39.939Z,33.28
2023-03-07T11:34:33.113Z,27.73
2023-03-07T11:37:16.346Z,29.63
2023-03-07T11:40:03.369Z,27.13
2023-03-07T11:45:32.318Z,29.27
2023-03-07T11:48:15.842Z,27.90
2023-03-07T11:50:49.884Z,39.40
2023-03-07T11:53:30.256Z,28.02
2023-03-07T11:56:11.810Z,27.77
2023-03-07T11:58:59.950Z,27.48
2023-03-07T12:01:46.094Z,28.52
2023-03-07T12:04:36.927Z,29.50
2023-03-07T12:07:32.365Z,28.25
2023-03-07T12:10:22.579Z,27.17
2023-03-07T12:13:28.154Z,26.52
2023-03-07T12:16:29.765Z,28.08
2023-03-07T12:19:14.938Z,26.85
2023-03-07T12:22:16.157Z,26.10
2023-03-07T12:24:56.412Z,25.77
2023-03-07T12:27:38.678Z,26.65
2023-03-07T12:30:20.434Z,27.95
2023-03-07T12:32:51.928Z,27.80
2023-03-07T12:35:40.656Z,27.13
2023-03-07T12:38:37.939Z,26.95
2023-03-07T12:41:30.025Z,31.80
2023-03-07T12:44:06.847Z,27.35
2023-03-07T12:46:52.640Z,26.08
2023-03-07T12:50:02.924Z,27.27
2023-03-07T12:52:51.065Z,26.80
2023-03-07T12:55:37.581Z,25.20
2023-03-07T12:58:30.976Z,25.13
2023-03-07T13:01:11.428Z,26.23
2023-03-07T13:03:53.936Z,26.30
2023-03-07T13:06:23.441Z,24.50
2023-03-07T13:08:59.409Z,25.98
2023-03-07T13:11:36.519Z,24.95
2023-03-07T13:14:14.599Z,30.67
2023-03-07T13:19:31.661Z,26.02
2023-03-07T13:22:02.094Z,27.00
2023-03-07T13:24:57.665Z,25.98
2023-03-07T13:27:47.608Z,24.30
2023-03-07T13:30:20.033Z,25.15
2023-03-07T13:32:58.158Z,32.83
2023-03-07T13:35:42.724Z,25.60
2023-03-07T13:38:25.864Z,27.38
2023-03-07T13:41:01.996Z,26.38
2023-03-07T13:43:37.753Z,25.23
2023-03-07T13:49:53.645Z,26.17
2023-03-07T13:52:39.501Z,25.48
2023-03-07T13:55:28.759Z,26.17
2023-03-07T14:01:23.406Z,26.60
2023-03-07T14:04:11.014Z,28.63
2023-03-07T14:06:51.768Z,30.85
2023-03-07T14:12:24.037Z,27.73
2023-03-07T14:15:32.577Z,26.67
2023-03-07T14:18:58.400Z,45.42
2023-03-07T14:22:10.587Z,26.05
2023-03-07T14:24:55.119Z,28.38
2023-03-07T14:27:27.309Z,27.75
2023-03-07T14:30:05.426Z,26.17
2023-03-07T14:32:55.320Z,26.98
2023-03-07T14:38:32.034Z,25.65
2023-03-07T14:41:20.380Z,26.27
2023-03-07T14:44:25.350Z,25.23
2023-03-07T14:47:22.267Z,24.85
2023-03-07T14:51:00.925Z,25.35
2023-03-07T14:53:43.129Z,25.50
2023-03-07T14:56:35.442Z,25.80
2023-03-07T14:59:03.794Z,25.15
2023-03-07T15:04:55.643Z,27.70
2023-03-07T15:07:51.062Z,25.85
2023-03-07T15:11:06.226Z,23.98
2023-03-07T15:14:04.774Z,25.45
2023-03-07T15:16:57.292Z,25.55
2023-03-07T15:20:07.354Z,24.58
2023-03-07T15:22:46.017Z,23.38
2023-03-07T15:25:27.292Z,25.45
2023-03-07T15:28:21.725Z,26.08
2023-03-07T15:31:03.150Z,35.78
2023-03-07T15:33:39.818Z,30.73
2023-03-07T15:36:17.416Z,26.15
2023-03-07T15:38:54.372Z,26.98
2023-03-07T15:41:33.865Z,24.25
2023-03-07T15:44:28.333Z,26.90
2023-03-07T15:47:18.314Z,24.70
2023-03-07T15:50:16.529Z,27.27
2023-03-07T15:52:54.739Z,27.40
2023-03-07T15:55:28.489Z,25.27
2023-03-07T15:58:00.666Z,25.73
2023-03-07T16:00:36.713Z,25.38
2023-03-07T16:03:35.317Z,24.83
2023-03-07T16:06:05.650Z,26.65
2023-03-07T16:08:32.676Z,25.90
2023-03-07T16:11:16.134Z,24.38
2023-03-07T16:13:48.574Z,25.30
2023-03-07T16:16:23.140Z,25.52
2023-03-07T16:18:59.605Z,24.88
2023-03-07T16:21:28.831Z,26.15
2023-03-07T16:23:58.627Z,24.40
2023-03-07T16:26:25.594Z,34.60
2023-03-07T16:29:00.155Z,25.13
2023-03-07T16:31:27.426Z,22.48
2023-03-07T16:34:03.294Z,25.38
2023-03-07T16:36:33.052Z,24.10
2023-03-07T16:38:59.872Z,25.90
2023-03-07T16:41:27.651Z,26.35
2023-03-07T16:43:56.587Z,24.30
2023-03-07T16:46:24.200Z,23.90
2023-03-07T16:48:51.856Z,23.33
2023-03-07T16:51:21.614Z,26.25
2023-03-07T16:53:50.179Z,26.73
2023-03-07T16:56:30.589Z,27.08
2023-03-07T16:59:01.115Z,25.67
2023-03-07T17:01:28.226Z,24.33
2023-03-07T17:03:56.744Z,30.30
2023-03-07T17:06:37.170Z,23.85
2023-03-07T17:09:11.172Z,24.58
2023-03-07T17:11:45.555Z,24.63
2023-03-07T17:14:14.800Z,24.70
2023-03-07T17:16:45.089Z,24.10
2023-03-07T17:19:38.318Z,24.30
2023-03-07T17:22:05.278Z,25.38
2023-03-07T17:24:31.992Z,26.10
2023-03-07T17:27:00.943Z,31.92
2023-03-07T17:29:27.825Z,25.27
2023-03-07T17:31:54.675Z,34.20
2023-03-07T17:34:29.894Z,24.23
2023-03-07T17:36:57.735Z,25.83
2023-03-07T17:41:54.556Z,25.02
2023-03-07T17:44:34.487Z,25.02
2023-03-07T17:47:01.585Z,25.48
2023-03-07T17:49:46.731Z,24.60
2023-03-07T17:52:15.292Z,24.25
2023-03-07T17:55:12.273Z,27.95
2023-03-07T17:57:35.418Z,26.15
2023-03-07T18:00:09.689Z,27.65
2023-03-07T18:05:03.828Z,25.27
2023-03-07T18:07:37.872Z,25.38
2023-03-07T18:10:08.659Z,26.02
2023-03-07T18:12:39.503Z,24.35
2023-03-07T18:15:10.886Z,27.05
2023-03-07T18:17:47.930Z,25.85
2023-03-07T18:20:23.756Z,31.25
2023-03-07T18:22:50.493Z,24.70
2023-03-07T18:25:18.056Z,27.60
2023-03-07T18:27:48.589Z,24.15
2023-03-07T18:30:23.484Z,23.80
2023-03-07T18:32:50.402Z,24.73
2023-03-07T18:35:24.147Z,34.75
2023-03-07T18:37:57.189Z,29.38
2023-03-07T18:40:25.149Z,25.20
2023-03-07T18:45:19.822Z,29.08
2023-03-07T18:47:49.941Z,24.27
2023-03-07T18:50:19.777Z,24.90
2023-03-07T18:52:47.118Z,24.52
2023-03-07T18:55:16.669Z,25.02
2023-03-07T18:57:46.242Z,24.10
2023-03-07T19:00:13.780Z,24.05
2023-03-07T19:02:40.593Z,27.90
2023-03-07T19:05:18.168Z,24.15
2023-03-07T19:07:45.635Z,25.35
2023-03-07T19:10:12.480Z,24.83
2023-03-07T19:12:48.426Z,24.90
2023-03-07T19:15:19.882Z,26.17
2023-03-07T19:17:46.760Z,25.98
2023-03-07T19:20:15.714Z,28.92
2023-03-07T19:22:42.438Z,26.40
2023-03-07T19:25:14.163Z,32.85
2023-03-07T19:27:41.399Z,26.25
2023-03-07T19:30:11.457Z,33.22
2023-03-07T19:32:38.684Z,31.85
2023-03-07T19:35:08.608Z,26.67
2023-03-07T19:37:37.537Z,27.95
2023-03-07T19:40:06.047Z,27.27
2023-03-07T19:42:35.755Z,34.00
2023-03-07T19:45:03.059Z,27.98
2023-03-07T19:47:30.298Z,27.48
2023-03-07T19:49:57.660Z,28.92
2023-03-07T19:52:28.332Z,26.80
2023-03-07T19:54:58.750Z,27.25
2023-03-07T19:57:28.751Z,28.30
2023-03-07T19:59:57.740Z,27.98
2023-03-07T20:02:32.367Z,28.40
2023-03-07T20:05:03.527Z,35.42
2023-03-07T20:07:30.807Z,28.52
2023-03-07T20:09:58.025Z,33.60
2023-03-07T20:12:25.185Z,29.55
2023-03-07T20:14:51.925Z,29.00
2023-03-07T20:17:28.088Z,29.90
2023-03-07T20:19:56.260Z,29.88
2023-03-07T20:22:26.595Z,29.80
2023-03-07T20:24:53.755Z,35.85
2023-03-07T20:27:23.534Z,28.52
2023-03-07T20:29:58.918Z,30.13
2023-03-07T20:32:28.738Z,26.92
2023-03-07T20:35:05.036Z,27.75
2023-03-07T20:37:34.112Z,27.35
2023-03-07T20:40:02.651Z,30.10
2023-03-07T20:42:31.672Z,26.17
2023-03-07T20:45:00.910Z,28.38
2023-03-07T20:47:30.233Z,28.63
2023-03-07T20:49:58.132Z,27.52
2023-03-07T20:54:56.708Z,28.58
2023-03-07T20:57:25.860Z,31.80
2023-03-07T20:59:58.808Z,32.15
2023-03-07T21:02:32.007Z,31.20
2023-03-07T21:04:59.169Z,30.17
2023-03-07T21:07:29.046Z,29.65
2023-03-07T21:09:59.459Z,38.35
2023-03-07T21:12:28.565Z,30.98
2023-03-07T21:14:55.367Z,29.38
2023-03-07T21:17:22.139Z,28.15
2023-03-07T21:19:48.861Z,30.75
2023-03-07T21:22:15.978Z,30.02
2023-03-07T21:24:45.092Z,28.90
2023-03-07T21:27:11.735Z,29.38
2023-03-07T21:29:38.407Z,28.15
2023-03-07T21:32:17.390Z,27.67
2023-03-07T21:34:44.362Z,27.48
2023-03-07T21:37:11.190Z,28.83
2023-03-07T21:39:38.142Z,26.92
2023-03-07T21:42:04.890Z,28.05
2023-03-07T21:44:33.150Z,26.27
2023-03-07T21:47:00.119Z,31.77
2023-03-07T21:49:27.228Z,30.70
2023-03-07T21:51:53.896Z,26.38
2023-03-07T21:54:20.599Z,26.25
2023-03-07T21:56:50.567Z,24.40
2023-03-07T21:59:17.925Z,25.92
2023-03-07T22:01:44.828Z,24.85
2023-03-07T22:04:11.871Z,25.80
2023-03-07T22:06:38.570Z,25.55
2023-03-07T22:09:05.929Z,25.83
2023-03-07T22:11:32.753Z,31.23
2023-03-07T22:13:59.660Z,26.38
2023-03-07T22:16:26.697Z,24.08
2023-03-07T22:18:57.211Z,23.83
2023-03-07T22:21:27.892Z,25.35
2023-03-07T22:24:01.436Z,26.58
2023-03-07T22:26:29.589Z,27.25
2023-03-07T22:28:56.468Z,26.02
2023-03-07T22:31:27.346Z,24.65
2023-03-07T22:33:54.323Z,24.63
2023-03-07T22:36:21.329Z,24.20
2023-03-07T22:38:58.182Z,26.35
2023-03-07T22:41:25.815Z,24.30
2023-03-07T22:44:01.169Z,24.60
2023-03-07T22:46:30.909Z,24.38
2023-03-07T22:48:59.497Z,24.45
2023-03-07T22:51:30.802Z,24.90
2023-03-07T22:53:57.547Z,24.05
2023-03-07T22:56:26.649Z,25.20
2023-03-07T22:58:53.786Z,25.63
2023-03-07T23:01:26.533Z,23.65
2023-03-07T23:03:55.105Z,24.83
2023-03-07T23:06:23.530Z,25.70
2023-03-07T23:08:55.911Z,25.33
2023-03-07T23:11:24.750Z,24.73
2023-03-07T23:13:52.268Z,25.95
2023-03-07T23:16:22.204Z,26.33
2023-03-07T23:18:55.275Z,26.30
2023-03-07T23:21:31.801Z,27.90
2023-03-07T23:23:59.839Z,28.13
2023-03-07T23:26:32.274Z,25.35
2023-03-07T23:29:00.224Z,31.92
2023-03-07T23:34:01.269Z,25.00
2023-03-07T23:36:30.221Z,25.85
2023-03-07T23:39:03.516Z,25.52
2023-03-07T23:41:30.871Z,26.13
2023-03-07T23:44:05.425Z,33.60
2023-03-07T23:46:32.542Z,27.98
2023-03-07T23:48:59.457Z,27.00
2023-03-07T23:51:26.293Z,25.17
2023-03-07T23:53:56.289Z,26.65
2023-03-07T23:56:23.126Z,24.95
2023-03-07T23:58:54.969Z,26.20
